Time;durP1;ratioP1;P1;durP2;ratioP2;P2;SDS_P1;SDS_P2;PMS_P1;PMS_P2;Temp;Humidity;BMP_temperature;BMP_pressure;BME280_temperature;BME280_humidity;BME280_pressure;Samples;Min_cycle;Max_cycle;Signal;HPM_P1;HPM_P2
2024/03/05 00:02:17;;;;;;;12.65;7.35;;;;;;;;;;5065161;28;20393;-74
2024/03/05 00:04:43;;;;;;;13.68;8.20;;;;;;;;;;5061219;28;20055;-72
2024/03/05 00:07:10;;;;;;;13.15;7.88;;;;;;;;;;5067740;28;20043;-73
2024/03/05 00:09:36;;;;;;;15.77;8.13;;;;;;;;;;5072105;28;20051;-72
2024/03/05 00:12:03;;;;;;;13.73;7.88;;;;;;;;;;5080813;28;20059;-72
2024/03/05 00:14:31;;;;;;;13.70;8.27;;;;;;;;;;5059355;28;20057;-72
2024/03/05 00:16:57;;;;;;;14.02;8.73;;;;;;;;;;5077413;28;20048;-73
2024/03/05 00:19:25;;;;;;;16.98;9.30;;;;;;;;;;5061313;28;20408;-72
2024/03/05 00:21:52;;;;;;;16.20;8.60;;;;;;;;;;5070889;28;20696;-72
2024/03/05 00:24:19;;;;;;;14.45;7.68;;;;;;;;;;5059151;28;20059;-72
2024/03/05 00:26:45;;;;;;;13.07;8.00;;;;;;;;;;5072659;28;20563;-72
2024/03/05 00:29:12;;;;;;;15.38;8.68;;;;;;;;;;5084412;28;20471;-72
2024/03/05 00:31:40;;;;;;;12.05;8.05;;;;;;;;;;5086842;28;20052;-73
2024/03/05 00:34:07;;;;;;;16.10;8.55;;;;;;;;;;5077498;28;20077;-73
2024/03/05 00:36:33;;;;;;;12.02;8.43;;;;;;;;;;5075889;28;20456;-73
2024/03/05 00:39:00;;;;;;;16.17;9.02;;;;;;;;;;5078135;28;20048;-73
2024/03/05 00:41:26;;;;;;;17.80;9.40;;;;;;;;;;5069317;28;20059;-73
2024/03/05 00:43:52;;;;;;;17.20;9.73;;;;;;;;;;5048908;28;20052;-72
2024/03/05 00:46:20;;;;;;;16.15;10.13;;;;;;;;;;5065518;28;20048;-72
2024/03/05 00:48:47;;;;;;;17.55;10.25;;;;;;;;;;5061001;28;20051;-73
2024/03/05 00:51:13;;;;;;;19.92;10.55;;;;;;;;;;5064144;28;20048;-72
2024/03/05 00:53:40;;;;;;;18.38;10.15;;;;;;;;;;5073738;28;20071;-72
2024/03/05 00:56:06;;;;;;;16.38;11.02;;;;;;;;;;5075348;28;20056;-73
2024/03/05 00:58:33;;;;;;;20.88;11.98;;;;;;;;;;5086713;28;20503;-74
2024/03/05 01:01:01;;;;;;;19.08;10.73;;;;;;;;;;5083032;28;20480;-74
2024/03/05 01:03:27;;;;;;;19.08;11.43;;;;;;;;;;5071588;28;20076;-73
2024/03/05 01:05:53;;;;;;;18.50;11.32;;;;;;;;;;5079055;28;20040;-74
2024/03/05 01:08:20;;;;;;;17.50;11.02;;;;;;;;;;5072316;28;20098;-73
2024/03/05 01:10:47;;;;;;;19.02;11.68;;;;;;;;;;5083736;28;20052;-73
2024/03/05 01:13:14;;;;;;;18.38;10.95;;;;;;;;;;5066831;28;20554;-74
2024/03/05 01:15:41;;;;;;;22.15;11.38;;;;;;;;;;5058419;28;20098;-74
2024/03/05 01:18:07;;;;;;;20.58;10.82;;;;;;;;;;5082246;28;20044;-74
2024/03/05 01:20:37;;;;;;;20.23;11.38;;;;;;;;;;5084047;28;20036;-74
2024/03/05 01:29:47;;;;;;;18.80;11.05;;;;;;;;;;5077475;28;20499;-74
2024/03/05 01:32:14;;;;;;;24.73;10.90;;;;;;;;;;5080335;28;20060;-73
2024/03/05 01:34:43;;;;;;;18.38;11.48;;;;;;;;;;5081643;28;20427;-74
2024/03/05 01:37:13;;;;;;;18.75;11.13;;;;;;;;;;5064170;28;20055;-74
2024/03/05 01:39:39;;;;;;;22.27;12.15;;;;;;;;;;5075695;28;20047;-74
2024/03/05 01:42:08;;;;;;;20.15;11.02;;;;;;;;;;5081383;28;20080;-74
2024/03/05 01:44:34;;;;;;;18.42;11.18;;;;;;;;;;5067452;28;20490;-74
2024/03/05 01:47:01;;;;;;;25.58;11.82;;;;;;;;;;5071155;28;20056;-73
2024/03/05 01:49:28;;;;;;;20.30;11.77;;;;;;;;;;5076825;28;20035;-74
2024/03/05 01:51:55;;;;;;;20.45;11.95;;;;;;;;;;5075413;28;20050;-74
2024/03/05 01:54:22;;;;;;;19.00;12.30;;;;;;;;;;5071795;28;20132;-74
2024/03/05 01:56:50;;;;;;;21.20;12.25;;;;;;;;;;5055706;28;20048;-74
2024/03/05 01:59:18;;;;;;;21.83;12.95;;;;;;;;;;5082171;28;20141;-74
2024/03/05 02:01:45;;;;;;;28.25;12.82;;;;;;;;;;5070112;28;20044;-74
2024/03/05 02:04:12;;;;;;;20.52;12.55;;;;;;;;;;5082230;28;20044;-74
2024/03/05 02:06:40;;;;;;;22.35;12.30;;;;;;;;;;5074795;28;20044;-74
2024/03/05 02:09:11;;;;;;;22.73;12.52;;;;;;;;;;5081570;28;20472;-74
2024/03/05 02:11:43;;;;;;;20.80;12.50;;;;;;;;;;5083051;28;20055;-74
2024/03/05 02:14:13;;;;;;;21.48;12.40;;;;;;;;;;5072309;28;20103;-74
2024/03/05 02:16:40;;;;;;;24.33;13.00;;;;;;;;;;5082750;28;20127;-75
2024/03/05 02:19:07;;;;;;;22.35;13.18;;;;;;;;;;5074300;28;20056;-74
2024/03/05 02:21:34;;;;;;;24.25;13.75;;;;;;;;;;5087599;28;20051;-74
2024/03/05 02:24:00;;;;;;;21.83;13.57;;;;;;;;;;5069328;28;20746;-74
2024/03/05 02:26:31;;;;;;;25.30;13.85;;;;;;;;;;5064461;28;20054;-74
2024/03/05 02:28:58;;;;;;;19.73;12.27;;;;;;;;;;5063953;28;20149;-74
2024/03/05 02:31:25;;;;;;;22.17;12.65;;;;;;;;;;5091275;28;20048;-74
2024/03/05 02:33:53;;;;;;;20.92;12.90;;;;;;;;;;5087547;28;20620;-74
2024/03/05 02:36:21;;;;;;;25.20;13.23;;;;;;;;;;5051099;28;20084;-74
2024/03/05 02:38:50;;;;;;;26.40;14.05;;;;;;;;;;5078293;28;20056;-74
2024/03/05 02:41:16;;;;;;;25.30;14.40;;;;;;;;;;5067498;28;20072;-74
2024/03/05 02:43:45;;;;;;;32.05;15.65;;;;;;;;;;5068929;28;20050;-71
2024/03/05 02:46:13;;;;;;;27.92;13.95;;;;;;;;;;5054399;28;20044;-71
2024/03/05 02:48:39;;;;;;;23.20;13.77;;;;;;;;;;5072275;28;20446;-71
2024/03/05 02:51:07;;;;;;;25.48;13.70;;;;;;;;;;5088014;28;20121;-70
2024/03/05 02:53:34;;;;;;;22.25;14.00;;;;;;;;;;5079207;28;20051;-72
2024/03/05 02:56:04;;;;;;;26.80;15.07;;;;;;;;;;5081345;28;20133;-71
2024/03/05 02:58:31;;;;;;;30.23;14.38;;;;;;;;;;5077785;28;20136;-72
2024/03/05 03:00:57;;;;;;;23.17;14.07;;;;;;;;;;5079189;28;20862;-71
2024/03/05 03:03:25;;;;;;;29.92;14.55;;;;;;;;;;5058388;28;20048;-72
2024/03/05 03:05:52;;;;;;;22.40;13.65;;;;;;;;;;5062743;28;20044;-71
2024/03/05 03:08:18;;;;;;;24.83;14.88;;;;;;;;;;5079886;28;20143;-73
2024/03/05 03:10:45;;;;;;;24.73;14.77;;;;;;;;;;5072969;28;20705;-71
2024/03/05 03:13:11;;;;;;;26.95;15.35;;;;;;;;;;5058726;28;20052;-71
2024/03/05 03:15:37;;;;;;;23.55;13.40;;;;;;;;;;5079320;28;20051;-72
2024/03/05 03:18:05;;;;;;;23.25;14.68;;;;;;;;;;5083200;28;20522;-70
2024/03/05 03:20:32;;;;;;;27.60;15.35;;;;;;;;;;5073930;28;20609;-71
2024/03/05 03:22:58;;;;;;;24.83;14.57;;;;;;;;;;5070424;28;20068;-73
2024/03/05 03:25:25;;;;;;;25.10;14.32;;;;;;;;;;5059534;28;20130;-70
2024/03/05 03:27:52;;;;;;;27.77;15.52;;;;;;;;;;5072935;28;20048;-71
2024/03/05 03:30:20;;;;;;;28.50;15.27;;;;;;;;;;5077027;28;20806;-70
2024/03/05 03:32:46;;;;;;;23.02;15.40;;;;;;;;;;5081965;28;20053;-71
2024/03/05 03:35:13;;;;;;;30.13;15.30;;;;;;;;;;5064261;28;20067;-71
2024/03/05 03:37:41;;;;;;;25.90;15.95;;;;;;;;;;5067594;28;20489;-71
2024/03/05 03:40:17;;;;;;;27.50;15.30;;;;;;;;;;5053983;28;20052;-73
2024/03/05 03:42:47;;;;;;;30.33;15.32;;;;;;;;;;5069238;28;20772;-71
2024/03/05 03:45:13;;;;;;;26.05;15.50;;;;;;;;;;5062329;28;20079;-72
2024/03/05 03:47:40;;;;;;;30.55;16.85;;;;;;;;;;5080834;28;20511;-71
2024/03/05 03:50:07;;;;;;;30.65;15.95;;;;;;;;;;5055275;28;20048;-72
2024/03/05 03:52:34;;;;;;;29.08;17.13;;;;;;;;;;5049167;28;20535;-74
2024/03/05 03:55:01;;;;;;;35.70;16.88;;;;;;;;;;5067042;28;20144;-74
2024/03/05 03:57:28;;;;;;;32.10;17.13;;;;;;;;;;5067392;28;20083;-74
2024/03/05 03:59:55;;;;;;;32.28;17.52;;;;;;;;;;5069798;28;20048;-73
2024/03/05 04:02:21;;;;;;;35.75;20.35;;;;;;;;;;5084731;28;20132;-74
2024/03/05 04:04:48;;;;;;;31.60;17.08;;;;;;;;;;5068458;28;20098;-74
2024/03/05 04:07:18;;;;;;;29.30;17.00;;;;;;;;;;5060582;28;20167;-74
2024/03/05 04:09:45;;;;;;;29.75;16.70;;;;;;;;;;5067256;28;20152;-74
2024/03/05 04:12:13;;;;;;;33.45;16.92;;;;;;;;;;5083476;28;20062;-74
2024/03/05 04:14:40;;;;;;;31.63;18.20;;;;;;;;;;5074694;28;20454;-73
2024/03/05 04:17:06;;;;;;;29.33;17.20;;;;;;;;;;5069873;28;20525;-74
2024/03/05 04:19:33;;;;;;;30.00;18.27;;;;;;;;;;5077753;28;20056;-73
2024/03/05 04:22:02;;;;;;;29.42;16.77;;;;;;;;;;5074465;28;20437;-74
2024/03/05 04:24:30;;;;;;;29.27;16.98;;;;;;;;;;5082522;28;20147;-74
2024/03/05 04:27:02;;;;;;;29.40;17.05;;;;;;;;;;5069987;28;20167;-73
2024/03/05 04:29:33;;;;;;;32.60;17.02;;;;;;;;;;5072998;28;20048;-73
2024/03/05 04:32:05;;;;;;;34.10;17.85;;;;;;;;;;5088647;28;20050;-73
2024/03/05 04:34:32;;;;;;;32.55;17.60;;;;;;;;;;5043468;28;20126;-73
2024/03/05 04:36:58;;;;;;;31.83;16.88;;;;;;;;;;5072290;28;20040;-73
2024/03/05 04:39:25;;;;;;;31.23;18.58;;;;;;;;;;5054212;28;20094;-73
2024/03/05 04:41:51;;;;;;;33.97;18.15;;;;;;;;;;5086912;28;20614;-73
2024/03/05 04:44:17;;;;;;;36.55;18.30;;;;;;;;;;5071705;28;20060;-73
2024/03/05 04:46:44;;;;;;;32.72;18.40;;;;;;;;;;5073697;28;20087;-73
2024/03/05 04:49:10;;;;;;;32.15;17.75;;;;;;;;;;5077224;28;20084;-73
2024/03/05 04:51:37;;;;;;;30.52;16.65;;;;;;;;;;5069939;28;20044;-73
2024/03/05 04:54:04;;;;;;;32.45;17.73;;;;;;;;;;5070125;28;20638;-73
2024/03/05 04:56:30;;;;;;;33.58;17.35;;;;;;;;;;5075121;28;20040;-73
2024/03/05 04:58:57;;;;;;;34.47;18.08;;;;;;;;;;5083862;28;20097;-73
2024/03/05 05:01:23;;;;;;;30.92;16.92;;;;;;;;;;5063601;28;20044;-73
2024/03/05 05:03:50;;;;;;;36.05;18.63;;;;;;;;;;5043811;28;20135;-74
2024/03/05 05:06:16;;;;;;;34.30;18.40;;;;;;;;;;5085912;28;20040;-73
2024/03/05 05:08:42;;;;;;;35.53;18.45;;;;;;;;;;5077837;28;20048;-73
2024/03/05 05:11:09;;;;;;;34.70;17.23;;;;;;;;;;5080070;28;20040;-73
2024/03/05 05:13:35;;;;;;;39.60;17.67;;;;;;;;;;5080825;28;20044;-72
2024/03/05 05:16:02;;;;;;;36.53;17.98;;;;;;;;;;5061293;28;20079;-73
2024/03/05 05:18:28;;;;;;;35.47;18.15;;;;;;;;;;5049432;28;20056;-73
2024/03/05 05:20:55;;;;;;;36.60;18.40;;;;;;;;;;5054198;28;20536;-73
2024/03/05 05:23:22;;;;;;;32.97;16.85;;;;;;;;;;5063555;28;20052;-73
2024/03/05 05:25:48;;;;;;;31.88;16.38;;;;;;;;;;5082045;28;20075;-73
2024/03/05 05:28:15;;;;;;;36.40;16.63;;;;;;;;;;5065394;28;20057;-72
2024/03/05 05:30:42;;;;;;;37.58;18.33;;;;;;;;;;5072288;28;20514;-73
2024/03/05 05:33:08;;;;;;;31.58;17.10;;;;;;;;;;5044842;28;20076;-72
2024/03/05 05:35:37;;;;;;;29.50;15.23;;;;;;;;;;5080528;28;20435;-72
2024/03/05 05:38:04;;;;;;;33.75;14.77;;;;;;;;;;5070195;28;20070;-71
2024/03/05 05:40:30;;;;;;;38.88;17.02;;;;;;;;;;5066761;28;20044;-72
2024/03/05 05:42:58;;;;;;;33.25;16.98;;;;;;;;;;5082533;28;20044;-72
2024/03/05 05:45:24;;;;;;;36.93;18.23;;;;;;;;;;5044762;28;20051;-72
2024/03/05 05:47:51;;;;;;;33.78;16.98;;;;;;;;;;5068550;28;20048;-72
2024/03/05 05:50:19;;;;;;;34.53;17.42;;;;;;;;;;5070421;28;20695;-72
2024/03/05 05:52:50;;;;;;;30.55;16.90;;;;;;;;;;5085727;28;20109;-72
2024/03/05 05:55:19;;;;;;;35.03;16.73;;;;;;;;;;5068339;28;20190;-73
2024/03/05 05:57:49;;;;;;;32.42;16.60;;;;;;;;;;5069420;28;20052;-72
2024/03/05 06:00:22;;;;;;;32.70;17.60;;;;;;;;;;5077060;28;20651;-72
2024/03/05 06:02:50;;;;;;;33.47;16.67;;;;;;;;;;5067581;28;20071;-72
2024/03/05 06:05:17;;;;;;;32.40;16.70;;;;;;;;;;5067415;28;20052;-73
2024/03/05 06:07:44;;;;;;;34.40;16.48;;;;;;;;;;5061116;28;20051;-71
2024/03/05 06:10:11;;;;;;;33.95;16.77;;;;;;;;;;5073788;28;20436;-72
2024/03/05 06:12:37;;;;;;;33.33;17.00;;;;;;;;;;5064030;28;20404;-72
2024/03/05 06:15:04;;;;;;;34.35;16.60;;;;;;;;;;5062549;28;20227;-72
2024/03/05 06:17:31;;;;;;;31.48;16.83;;;;;;;;;;5081064;28;20040;-72
2024/03/05 06:19:57;;;;;;;32.05;17.10;;;;;;;;;;5059000;28;20254;-72
2024/03/05 06:22:25;;;;;;;28.98;14.35;;;;;;;;;;5067404;28;20429;-73
2024/03/05 06:24:59;;;;;;;38.30;17.15;;;;;;;;;;5082488;28;20047;-72
2024/03/05 06:27:26;;;;;;;30.92;16.10;;;;;;;;;;5066145;28;20055;-72
2024/03/05 06:29:52;;;;;;;37.22;17.65;;;;;;;;;;5077389;28;20086;-73
2024/03/05 06:32:19;;;;;;;33.97;16.20;;;;;;;;;;5077296;28;20059;-73
2024/03/05 06:34:45;;;;;;;34.92;17.33;;;;;;;;;;5072466;28;20389;-72
2024/03/05 06:37:12;;;;;;;37.33;17.55;;;;;;;;;;5081626;28;20115;-72
2024/03/05 06:39:41;;;;;;;37.85;18.52;;;;;;;;;;5070548;28;20052;-72
2024/03/05 06:42:10;;;;;;;40.15;20.42;;;;;;;;;;5086548;28;20055;-72
2024/03/05 06:44:37;;;;;;;42.63;19.50;;;;;;;;;;5057659;28;20103;-72
2024/03/05 06:47:04;;;;;;;39.08;18.17;;;;;;;;;;5072003;28;20125;-72
2024/03/05 06:49:38;;;;;;;36.20;17.93;;;;;;;;;;5074992;28;20052;-73
2024/03/05 06:57:37;;;;;;;35.13;17.88;;;;;;;;;;5069461;28;20404;-74
2024/03/05 07:00:15;;;;;;;36.60;18.00;;;;;;;;;;5081439;28;20056;-74
2024/03/05 07:02:41;;;;;;;36.00;18.08;;;;;;;;;;5075950;28;20075;-73
2024/03/05 07:05:08;;;;;;;33.95;16.58;;;;;;;;;;5074759;28;20045;-73
2024/03/05 07:07:34;;;;;;;36.80;17.23;;;;;;;;;;5059881;28;20056;-72
2024/03/05 07:10:13;;;;;;;37.67;18.20;;;;;;;;;;5055434;28;20052;-72
2024/03/05 07:12:44;;;;;;;36.33;17.65;;;;;;;;;;5067052;28;20048;-75
2024/03/05 07:15:14;;;;;;;39.35;18.05;;;;;;;;;;5078590;28;20075;-72
2024/03/05 07:17:44;;;;;;;38.33;18.92;;;;;;;;;;5074045;28;20102;-73
2024/03/05 07:20:22;;;;;;;43.67;19.02;;;;;;;;;;5057937;28;20123;-73
2024/03/05 07:22:49;;;;;;;37.42;19.45;;;;;;;;;;5068013;28;20071;-71
2024/03/05 07:25:16;;;;;;;44.60;20.50;;;;;;;;;;5075190;28;20048;-70
2024/03/05 07:27:43;;;;;;;45.33;20.52;;;;;;;;;;5077684;28;20040;-71
2024/03/05 07:30:12;;;;;;;39.05;18.73;;;;;;;;;;5063546;28;20101;-71
2024/03/05 07:32:38;;;;;;;44.88;19.73;;;;;;;;;;5056253;28;20044;-73
2024/03/05 07:35:08;;;;;;;37.13;18.65;;;;;;;;;;5082841;28;20080;-71
2024/03/05 07:37:35;;;;;;;49.13;20.23;;;;;;;;;;5060787;28;20082;-71
2024/03/05 07:40:09;;;;;;;46.35;19.75;;;;;;;;;;5074340;28;20074;-71
2024/03/05 07:42:48;;;;;;;43.53;18.95;;;;;;;;;;5047845;28;20060;-71
2024/03/05 07:45:15;;;;;;;44.83;20.48;;;;;;;;;;5078378;28;20076;-71
2024/03/05 07:47:45;;;;;;;44.70;20.08;;;;;;;;;;5065744;28;20098;-71
2024/03/05 07:50:14;;;;;;;50.33;21.73;;;;;;;;;;5078497;28;20052;-72
2024/03/05 07:52:44;;;;;;;45.58;21.83;;;;;;;;;;5084924;28;20044;-72
2024/03/05 07:55:14;;;;;;;52.63;23.38;;;;;;;;;;5044614;28;20047;-72
2024/03/05 07:57:41;;;;;;;46.75;19.98;;;;;;;;;;5071112;28;20079;-72
2024/03/05 08:00:09;;;;;;;50.95;22.40;;;;;;;;;;5071198;28;20066;-71
2024/03/05 08:02:37;;;;;;;41.22;20.05;;;;;;;;;;5081637;28;20427;-71
2024/03/05 08:05:04;;;;;;;44.42;21.77;;;;;;;;;;5083718;28;20045;-72
2024/03/05 08:07:34;;;;;;;42.35;19.05;;;;;;;;;;5065766;28;20049;-71
2024/03/05 08:10:10;;;;;;;48.97;20.90;;;;;;;;;;5075458;28;20052;-71
2024/03/05 08:12:38;;;;;;;49.85;21.10;;;;;;;;;;5063852;28;20504;-73
2024/03/05 08:15:06;;;;;;;47.45;22.25;;;;;;;;;;5060338;28;20074;-71
2024/03/05 08:17:35;;;;;;;49.72;21.02;;;;;;;;;;5074913;28;20106;-73
2024/03/05 08:20:03;;;;;;;45.53;22.02;;;;;;;;;;5075094;28;20108;-73
2024/03/05 08:22:29;;;;;;;44.97;20.70;;;;;;;;;;5074095;28;20064;-72
2024/03/05 08:24:56;;;;;;;47.88;21.05;;;;;;;;;;5069612;28;20135;-72
2024/03/05 08:27:22;;;;;;;51.95;22.50;;;;;;;;;;5083142;28;20102;-72
2024/03/05 08:29:51;;;;;;;43.75;20.92;;;;;;;;;;5070689;28;20044;-72
2024/03/05 08:32:18;;;;;;;48.33;22.17;;;;;;;;;;5073321;28;20542;-74
2024/03/05 08:34:44;;;;;;;50.28;22.55;;;;;;;;;;5079905;28;20075;-73
2024/03/05 08:37:11;;;;;;;47.08;22.60;;;;;;;;;;5068495;28;20052;-72
2024/03/05 08:39:40;;;;;;;46.22;21.55;;;;;;;;;;5070092;28;20140;-73
2024/03/05 08:42:07;;;;;;;55.53;23.83;;;;;;;;;;5073039;28;20060;-74
2024/03/05 08:44:33;;;;;;;52.55;22.90;;;;;;;;;;5067182;28;20087;-73
2024/03/05 08:46:59;;;;;;;53.85;24.35;;;;;;;;;;5050366;28;20048;-73
2024/03/05 08:49:26;;;;;;;60.72;24.98;;;;;;;;;;5065121;28;20057;-72
2024/03/05 08:51:53;;;;;;;58.40;25.45;;;;;;;;;;5080143;28;20048;-73
2024/03/05 08:54:20;;;;;;;58.10;24.58;;;;;;;;;;5085930;28;20044;-73
2024/03/05 08:56:47;;;;;;;57.17;26.08;;;;;;;;;;5065990;28;20070;-74
2024/03/05 08:59:14;;;;;;;59.92;26.92;;;;;;;;;;5074610;28;20102;-74
2024/03/05 09:01:40;;;;;;;60.58;26.33;;;;;;;;;;5072718;28;20098;-73
2024/03/05 09:04:07;;;;;;;50.78;22.35;;;;;;;;;;5066274;28;20052;-74
2024/03/05 09:06:33;;;;;;;57.88;25.35;;;;;;;;;;5062149;28;20079;-73
2024/03/05 09:08:59;;;;;;;59.17;27.08;;;;;;;;;;5067364;28;20070;-74
2024/03/05 09:11:26;;;;;;;61.63;27.20;;;;;;;;;;5079074;28;20595;-74
2024/03/05 09:13:52;;;;;;;60.03;27.77;;;;;;;;;;5080722;28;20234;-74
2024/03/05 09:16:19;;;;;;;59.25;24.48;;;;;;;;;;5086039;28;20076;-74
2024/03/05 09:18:46;;;;;;;65.70;27.63;;;;;;;;;;5070264;28;20063;-75
2024/03/05 09:21:14;;;;;;;61.00;26.60;;;;;;;;;;5083748;28;20410;-73
2024/03/05 09:23:40;;;;;;;69.63;28.30;;;;;;;;;;5078064;28;20037;-74
2024/03/05 09:26:07;;;;;;;63.90;27.80;;;;;;;;;;5084013;28;20480;-75
2024/03/05 09:28:34;;;;;;;66.15;28.00;;;;;;;;;;5076319;28;20735;-74
2024/03/05 09:31:01;;;;;;;64.93;28.60;;;;;;;;;;5084175;28;20078;-75
2024/03/05 09:33:29;;;;;;;68.43;28.85;;;;;;;;;;5077694;28;20044;-74
2024/03/05 09:35:56;;;;;;;64.30;27.75;;;;;;;;;;5077744;28;20506;-74
2024/03/05 09:38:22;;;;;;;65.65;25.80;;;;;;;;;;5073629;28;20048;-74
2024/03/05 09:40:50;;;;;;;65.20;27.88;;;;;;;;;;5069911;28;20067;-73
2024/03/05 09:43:19;;;;;;;65.70;28.27;;;;;;;;;;5065580;28;20051;-72
2024/03/05 09:45:47;;;;;;;63.58;27.67;;;;;;;;;;5076405;28;20047;-73
2024/03/05 09:48:17;;;;;;;59.50;26.63;;;;;;;;;;5071102;28;20665;-73
2024/03/05 09:50:44;;;;;;;60.90;27.70;;;;;;;;;;5077667;28;20063;-73
2024/03/05 09:53:13;;;;;;;58.97;25.58;;;;;;;;;;5077548;28;20491;-73
2024/03/05 09:55:40;;;;;;;60.80;27.08;;;;;;;;;;5073152;28;20044;-72
2024/03/05 09:58:10;;;;;;;59.97;27.83;;;;;;;;;;5091386;28;20075;-73
2024/03/05 10:00:37;;;;;;;58.63;28.02;;;;;;;;;;5082536;28;20100;-72
2024/03/05 10:03:05;;;;;;;58.20;28.33;;;;;;;;;;5072255;28;20110;-73
2024/03/05 10:05:31;;;;;;;53.17;26.27;;;;;;;;;;5065653;28;20149;-73
2024/03/05 10:07:58;;;;;;;63.25;28.80;;;;;;;;;;5086974;28;20155;-73
2024/03/05 10:10:29;;;;;;;58.55;27.52;;;;;;;;;;5055257;28;20060;-73
2024/03/05 10:12:55;;;;;;;58.63;27.20;;;;;;;;;;5084354;28;20097;-73
2024/03/05 10:15:25;;;;;;;57.55;27.70;;;;;;;;;;5075443;28;20431;-74
2024/03/05 10:17:53;;;;;;;55.38;28.55;;;;;;;;;;5076487;28;20052;-73
2024/03/05 10:20:33;;;;;;;59.25;27.35;;;;;;;;;;5082818;28;20056;-73
2024/03/05 10:23:01;;;;;;;59.03;27.30;;;;;;;;;;5052160;28;20048;-73
2024/03/05 10:25:29;;;;;;;48.72;25.65;;;;;;;;;;5071631;28;20048;-72
2024/03/05 10:27:56;;;;;;;53.35;26.73;;;;;;;;;;5070590;28;20044;-72
2024/03/05 10:30:24;;;;;;;50.30;24.55;;;;;;;;;;5092357;27;20055;-73
2024/03/05 10:32:59;;;;;;;49.72;25.63;;;;;;;;;;5071131;28;20048;-73
2024/03/05 10:35:25;;;;;;;51.28;25.58;;;;;;;;;;5070067;28;20434;-72
2024/03/05 10:37:56;;;;;;;52.83;26.30;;;;;;;;;;5086107;28;20544;-73
2024/03/05 10:40:22;;;;;;;50.60;24.50;;;;;;;;;;5074956;28;20559;-73
2024/03/05 10:42:52;;;;;;;50.40;26.17;;;;;;;;;;5068003;28;20054;-72
2024/03/05 10:45:21;;;;;;;49.67;25.67;;;;;;;;;;5075620;28;20052;-73
2024/03/05 10:47:48;;;;;;;47.08;23.65;;;;;;;;;;5056269;28;20060;-73
2024/03/05 10:50:15;;;;;;;48.03;23.52;;;;;;;;;;5062530;28;20076;-73
2024/03/05 10:52:42;;;;;;;46.63;24.08;;;;;;;;;;5080863;28;20040;-73
2024/03/05 10:55:11;;;;;;;44.05;22.77;;;;;;;;;;5060512;28;20044;-73
2024/03/05 10:58:13;;;;;;;41.20;20.77;;;;;;;;;;5049386;28;20048;-74
2024/03/05 11:00:24;;;;;;;39.38;20.67;;;;;;;;;;5071196;28;20131;-73
2024/03/05 11:02:52;;;;;;;37.45;20.83;;;;;;;;;;5055415;28;20159;-73
2024/03/05 11:05:19;;;;;;;37.97;20.07;;;;;;;;;;5056752;28;20056;-74
2024/03/05 11:07:47;;;;;;;31.13;16.80;;;;;;;;;;5085187;28;20040;-72
2024/03/05 11:10:14;;;;;;;28.38;16.15;;;;;;;;;;5074892;28;20055;-74
2024/03/05 11:12:42;;;;;;;27.67;15.95;;;;;;;;;;5088381;28;20493;-72
2024/03/05 11:15:12;;;;;;;28.27;15.07;;;;;;;;;;5076240;28;20081;-72
2024/03/05 11:17:40;;;;;;;33.13;16.35;;;;;;;;;;5083153;28;20463;-72
2024/03/05 11:20:11;;;;;;;34.73;16.23;;;;;;;;;;5054141;28;20098;-72
2024/03/05 11:22:43;;;;;;;30.92;17.95;;;;;;;;;;5074981;28;20055;-71
2024/03/05 11:25:32;;;;;;;29.10;16.05;;;;;;;;;;5068359;28;20048;-73
2024/03/05 11:27:58;;;;;;;26.60;15.75;;;;;;;;;;5067860;28;20131;-71
2024/03/05 11:30:31;;;;;;;38.05;18.73;;;;;;;;;;5083283;28;20538;-74
2024/03/05 11:33:09;;;;;;;31.55;15.57;;;;;;;;;;5086563;28;20587;-73
2024/03/05 11:35:46;;;;;;;28.10;15.27;;;;;;;;;;5059522;28;20511;-72
2024/03/05 11:38:13;;;;;;;29.88;16.05;;;;;;;;;;5074018;28;20151;-71
2024/03/05 11:40:40;;;;;;;29.90;15.65;;;;;;;;;;5053593;28;20044;-71
2024/03/05 11:43:07;;;;;;;32.65;15.77;;;;;;;;;;5073636;28;20059;-72
2024/03/05 11:45:49;;;;;;;27.92;15.68;;;;;;;;;;5074160;28;20109;-71
2024/03/05 11:48:18;;;;;;;24.08;15.00;;;;;;;;;;5088302;28;20130;-72
2024/03/05 11:50:50;;;;;;;31.55;16.83;;;;;;;;;;5080365;28;20060;-71
2024/03/05 11:53:17;;;;;;;29.33;16.63;;;;;;;;;;5068398;28;20139;-72
2024/03/05 11:55:44;;;;;;;32.15;16.67;;;;;;;;;;5085764;28;20395;-72
2024/03/05 11:58:11;;;;;;;29.10;16.20;;;;;;;;;;5078708;28;20056;-71
2024/03/05 12:00:38;;;;;;;31.20;17.33;;;;;;;;;;5073464;28;20098;-71
2024/03/05 12:03:04;;;;;;;33.92;17.13;;;;;;;;;;5078027;28;20488;-72
2024/03/05 12:05:30;;;;;;;31.50;15.65;;;;;;;;;;5079152;28;20101;-70
2024/03/05 12:07:58;;;;;;;26.98;15.55;;;;;;;;;;5070858;28;20047;-72
2024/03/05 12:10:27;;;;;;;31.98;17.05;;;;;;;;;;5080197;28;20052;-73
2024/03/05 12:12:53;;;;;;;;;;;;;;;;;;5060619;28;20550;-73
2024/03/05 12:15:23;;;;;;;27.02;15.15;;;;;;;;;;5073112;28;19977;-72
2024/03/05 12:17:49;;;;;;;27.48;16.65;;;;;;;;;;5081392;28;20114;-72
2024/03/05 12:20:19;;;;;;;29.10;15.52;;;;;;;;;;5069595;28;20045;-73
2024/03/05 12:22:49;;;;;;;25.65;14.23;;;;;;;;;;5072446;28;20047;-72
2024/03/05 12:25:16;;;;;;;25.27;14.68;;;;;;;;;;5077942;28;20053;-72
2024/03/05 12:27:49;;;;;;;22.17;13.57;;;;;;;;;;5046662;28;20051;-73
2024/03/05 12:30:15;;;;;;;27.38;14.32;;;;;;;;;;5071774;28;20051;-72
2024/03/05 12:32:44;;;;;;;28.17;15.95;;;;;;;;;;5073032;28;20768;-73
2024/03/05 12:35:13;;;;;;;28.30;15.00;;;;;;;;;;5067280;28;20473;-72
2024/03/05 12:37:40;;;;;;;26.85;15.27;;;;;;;;;;5060362;28;20054;-72
2024/03/05 12:40:13;;;;;;;29.05;16.80;;;;;;;;;;5069320;28;20053;-72
2024/03/05 12:42:40;;;;;;;29.02;15.50;;;;;;;;;;5051167;28;20133;-72
2024/03/05 12:45:07;;;;;;;25.58;14.75;;;;;;;;;;5080246;28;20094;-71
2024/03/05 12:47:36;;;;;;;23.48;14.32;;;;;;;;;;5080241;28;20058;-72
2024/03/05 12:50:04;;;;;;;23.55;14.43;;;;;;;;;;5078392;28;20139;-73
2024/03/05 12:52:31;;;;;;;27.02;15.32;;;;;;;;;;5068305;28;20672;-72
2024/03/05 12:54:59;;;;;;;26.20;15.73;;;;;;;;;;5082477;28;20098;-71
2024/03/05 12:57:26;;;;;;;28.63;15.70;;;;;;;;;;5064311;28;20053;-72
2024/03/05 12:59:53;;;;;;;26.42;16.23;;;;;;;;;;5086855;28;20043;-73
2024/03/05 13:02:19;;;;;;;29.70;16.15;;;;;;;;;;5078517;28;20125;-72
2024/03/05 13:04:46;;;;;;;28.30;16.70;;;;;;;;;;5049371;28;20069;-71
2024/03/05 13:07:12;;;;;;;27.95;15.50;;;;;;;;;;5081881;28;20791;-72
2024/03/05 13:09:39;;;;;;;28.70;16.17;;;;;;;;;;5072660;28;20044;-72
2024/03/05 13:12:07;;;;;;;26.58;15.73;;;;;;;;;;5070761;28;20054;-73
2024/03/05 13:14:34;;;;;;;25.80;15.52;;;;;;;;;;5073521;28;20064;-75
2024/03/05 13:17:00;;;;;;;28.23;16.42;;;;;;;;;;5077151;28;20036;-74
2024/03/05 13:19:27;;;;;;;28.35;16.65;;;;;;;;;;5081885;28;20059;-75
2024/03/05 13:21:53;;;;;;;30.25;17.10;;;;;;;;;;5072044;28;20052;-74
2024/03/05 13:24:21;;;;;;;24.52;15.20;;;;;;;;;;5082132;28;20059;-74
2024/03/05 13:26:48;;;;;;;28.23;15.97;;;;;;;;;;5081385;28;20040;-74
2024/03/05 13:29:14;;;;;;;28.00;16.73;;;;;;;;;;5085267;28;20285;-73
2024/03/05 13:31:41;;;;;;;31.08;17.45;;;;;;;;;;5076290;28;20055;-74
2024/03/05 13:34:10;;;;;;;27.65;16.10;;;;;;;;;;5080366;28;20055;-74
2024/03/05 13:36:37;;;;;;;26.45;16.33;;;;;;;;;;5076555;28;20099;-74
2024/03/05 13:39:09;;;;;;;28.95;17.30;;;;;;;;;;5059913;28;20079;-74
2024/03/05 13:41:36;;;;;;;27.63;16.45;;;;;;;;;;5079230;28;20036;-74
2024/03/05 13:44:04;;;;;;;28.63;17.00;;;;;;;;;;5063582;28;20098;-75
2024/03/05 13:46:30;;;;;;;28.42;16.63;;;;;;;;;;5077936;28;20052;-74
2024/03/05 13:49:00;;;;;;;28.35;16.75;;;;;;;;;;5067289;28;20957;-74
2024/03/05 13:51:26;;;;;;;29.92;17.17;;;;;;;;;;5069526;28;20048;-75
2024/03/05 13:53:53;;;;;;;30.35;17.35;;;;;;;;;;5095922;28;20040;-75
2024/03/05 13:56:19;;;;;;;31.77;18.23;;;;;;;;;;5068587;28;20131;-73
2024/03/05 13:58:46;;;;;;;30.75;18.13;;;;;;;;;;5082171;28;20449;-74
2024/03/05 14:01:12;;;;;;;34.45;18.67;;;;;;;;;;5059974;28;20846;-74
2024/03/05 14:03:39;;;;;;;30.60;18.35;;;;;;;;;;5071092;28;20052;-74
2024/03/05 14:06:06;;;;;;;30.48;18.10;;;;;;;;;;5073034;28;20051;-74
2024/03/05 14:08:32;;;;;;;31.77;18.58;;;;;;;;;;5074286;28;20134;-74
2024/03/05 14:11:06;;;;;;;31.20;17.67;;;;;;;;;;5079518;28;20155;-73
2024/03/05 14:13:32;;;;;;;36.95;18.40;;;;;;;;;;5068642;28;20044;-75
2024/03/05 14:15:59;;;;;;;29.52;17.27;;;;;;;;;;5059886;28;20059;-74
2024/03/05 14:18:26;;;;;;;33.38;18.75;;;;;;;;;;5080347;28;20040;-74
2024/03/05 14:20:52;;;;;;;30.42;18.40;;;;;;;;;;5081112;28;20066;-74
2024/03/05 14:23:19;;;;;;;32.45;18.92;;;;;;;;;;5079562;28;20070;-73
2024/03/05 14:25:46;;;;;;;29.52;17.75;;;;;;;;;;5071734;28;20074;-72
2024/03/05 14:28:14;;;;;;;30.67;19.02;;;;;;;;;;5047643;28;20758;-72
2024/03/05 14:30:40;;;;;;;34.38;19.83;;;;;;;;;;5074173;28;20110;-73
2024/03/05 14:33:07;;;;;;;29.20;17.38;;;;;;;;;;5067114;28;20055;-73
2024/03/05 14:35:34;;;;;;;36.28;19.60;;;;;;;;;;5069846;28;20052;-73